createdAt,value
2022-09-21T00:01:25.170Z,7.50
2022-09-21T00:03:54.772Z,7.40
2022-09-21T00:06:24.084Z,7.40
2022-09-21T00:08:51.928Z,7.40
2022-09-21T00:11:26.351Z,7.40
2022-09-21T00:13:55.794Z,7.40
2022-09-21T00:16:24.054Z,7.30
2022-09-21T00:18:52.130Z,7.30
2022-09-21T00:21:19.801Z,7.30
2022-09-21T00:23:47.276Z,7.20
2022-09-21T00:26:21.651Z,7.20
2022-09-21T00:28:55.010Z,7.10
2022-09-21T00:31:23.158Z,7.10
2022-09-21T00:33:51.261Z,7.00
2022-09-21T00:36:21.345Z,7.10
2022-09-21T00:38:54.835Z,7.10
2022-09-21T00:41:22.905Z,7.00
2022-09-21T00:44:16.509Z,6.90
2022-09-21T00:46:45.979Z,7.00
2022-09-21T00:49:14.863Z,7.00
2022-09-21T00:51:42.837Z,7.00
2022-09-21T00:54:25.382Z,6.90
2022-09-21T00:56:54.102Z,6.90
2022-09-21T00:59:24.770Z,6.90
2022-09-21T01:01:54.857Z,6.90
2022-09-21T01:04:23.051Z,6.80
2022-09-21T01:06:50.974Z,6.80
2022-09-21T01:09:19.233Z,6.80
2022-09-21T01:12:08.647Z,6.80
2022-09-21T01:14:48.139Z,6.80
2022-09-21T01:17:22.790Z,6.80
2022-09-21T01:19:59.407Z,6.80
2022-09-21T01:22:45.574Z,6.70
2022-09-21T01:25:25.326Z,6.70
2022-09-21T01:28:12.781Z,6.70
2022-09-21T01:30:45.683Z,6.70
2022-09-21T01:33:26.513Z,6.70
2022-09-21T01:35:58.689Z,6.70
2022-09-21T01:38:47.868Z,6.70
2022-09-21T01:41:18.985Z,6.70
2022-09-21T01:43:55.290Z,6.70
2022-09-21T01:46:29.007Z,6.60
2022-09-21T01:49:13.338Z,6.70
2022-09-21T01:51:48.571Z,6.60
2022-09-21T01:54:27.504Z,6.60
2022-09-21T01:57:11.424Z,6.60
2022-09-21T01:59:50.530Z,6.60
2022-09-21T02:02:34.577Z,6.60
2022-09-21T02:05:03.403Z,6.60
2022-09-21T02:07:35.823Z,6.60
2022-09-21T02:10:06.688Z,6.50
2022-09-21T02:12:34.656Z,6.50
2022-09-21T02:15:04.119Z,6.60
2022-09-21T02:17:50.786Z,6.50
2022-09-21T02:20:31.948Z,6.50
2022-09-21T02:23:23.531Z,6.40
2022-09-21T02:26:10.207Z,6.40
2022-09-21T02:28:48.256Z,6.40
2022-09-21T02:31:46.964Z,6.40
2022-09-21T02:34:20.818Z,6.30
2022-09-21T02:37:22.437Z,6.30
2022-09-21T02:40:01.183Z,6.30
2022-09-21T02:42:34.949Z,6.30
2022-09-21T02:45:02.337Z,6.40
2022-09-21T02:47:46.422Z,6.30
2022-09-21T02:50:21.481Z,6.20
2022-09-21T02:52:49.145Z,6.30
2022-09-21T02:55:18.034Z,6.20
2022-09-21T02:57:48.237Z,6.20
2022-09-21T03:00:16.907Z,6.20
2022-09-21T03:02:45.408Z,6.20
2022-09-21T03:05:14.561Z,6.20
2022-09-21T03:07:42.389Z,6.10
2022-09-21T03:10:10.594Z,6.10
2022-09-21T03:12:38.406Z,6.10
2022-09-21T03:15:06.335Z,6.00
2022-09-21T03:17:35.097Z,6.00
2022-09-21T03:20:02.763Z,6.20
2022-09-21T03:22:30.246Z,6.10
2022-09-21T03:24:57.820Z,6.20
2022-09-21T03:27:25.265Z,6.00
2022-09-21T03:30:37.606Z,6.30
2022-09-21T03:33:06.205Z,6.00
2022-09-21T03:35:34.259Z,6.20
2022-09-21T03:38:02.513Z,6.20
2022-09-21T03:40:30.112Z,6.00
2022-09-21T03:42:57.673Z,6.10
2022-09-21T03:45:27.621Z,6.00
2022-09-21T03:47:59.740Z,6.10
2022-09-21T03:50:28.840Z,6.00
2022-09-21T03:52:57.332Z,5.90
2022-09-21T03:55:25.597Z,6.00
2022-09-21T03:57:53.446Z,6.00
2022-09-21T04:00:20.934Z,6.10
2022-09-21T04:02:48.485Z,6.00
2022-09-21T04:05:17.013Z,6.10
2022-09-21T04:07:46.073Z,5.90
2022-09-21T04:10:16.777Z,6.30
2022-09-21T04:12:45.096Z,6.20
2022-09-21T04:15:19.782Z,6.20
2022-09-21T04:17:51.129Z,6.00
2022-09-21T04:20:18.602Z,5.90
2022-09-21T04:22:47.309Z,5.80
2022-09-21T04:25:15.835Z,5.90
2022-09-21T04:27:58.605Z,5.90
2022-09-21T04:30:26.033Z,5.90
2022-09-21T04:32:53.753Z,5.90
2022-09-21T04:35:21.353Z,5.90
2022-09-21T04:37:48.715Z,5.90
2022-09-21T04:40:16.225Z,6.20
2022-09-21T04:42:43.826Z,5.90
2022-09-21T04:45:11.507Z,5.90
2022-09-21T04:47:38.931Z,6.00
2022-09-21T04:50:07.023Z,6.20
2022-09-21T04:52:34.580Z,6.00
2022-09-21T04:55:01.959Z,6.00
2022-09-21T04:57:29.686Z,5.90
2022-09-21T04:59:56.992Z,6.00
2022-09-21T05:02:27.931Z,6.00
2022-09-21T05:04:55.551Z,6.10
2022-09-21T05:07:23.055Z,5.80
2022-09-21T05:10:04.464Z,6.10
2022-09-21T05:12:44.244Z,6.40
2022-09-21T05:15:13.318Z,6.10
2022-09-21T05:17:41.736Z,6.30
2022-09-21T05:20:10.723Z,6.30
2022-09-21T05:22:38.293Z,6.20
2022-09-21T05:25:06.669Z,6.40
2022-09-21T05:27:34.291Z,6.40
2022-09-21T05:30:10.617Z,6.50
2022-09-21T05:33:02.225Z,6.50
2022-09-21T05:41:42.788Z,6.60
2022-09-21T05:44:20.264Z,7.00
2022-09-21T05:46:59.435Z,6.90
2022-09-21T05:49:52.254Z,6.80
2022-09-21T05:52:58.726Z,7.40
2022-09-21T05:56:19.693Z,7.10
2022-09-21T05:58:53.846Z,7.00
2022-09-21T06:02:00.500Z,8.30
2022-09-21T06:04:31.594Z,7.10
2022-09-21T06:07:05.606Z,7.20
2022-09-21T06:09:43.269Z,7.10
2022-09-21T06:12:11.691Z,7.50
2022-09-21T06:14:39.280Z,7.60
2022-09-21T06:17:07.896Z,7.50
2022-09-21T06:19:39.690Z,6.50
2022-09-21T06:22:07.175Z,7.60
2022-09-21T06:24:35.054Z,7.90
2022-09-21T06:27:03.695Z,7.70
2022-09-21T06:29:33.927Z,8.00
2022-09-21T06:32:03.976Z,8.10
2022-09-21T06:34:31.696Z,9.40
2022-09-21T06:36:59.423Z,8.20
2022-09-21T06:39:28.206Z,8.40
2022-09-21T06:41:59.906Z,8.40
2022-09-21T06:44:30.239Z,8.60
2022-09-21T06:47:30.574Z,8.60
2022-09-21T06:50:00.259Z,9.20
2022-09-21T06:52:33.893Z,8.80
2022-09-21T06:55:07.889Z,8.80
2022-09-21T06:57:43.326Z,8.80
2022-09-21T07:00:15.593Z,8.80
2022-09-21T07:02:47.467Z,8.90
2022-09-21T07:05:17.477Z,8.90
2022-09-21T07:07:53.752Z,9.10
2022-09-21T07:10:21.833Z,9.20
2022-09-21T07:12:52.125Z,9.20
2022-09-21T07:15:21.977Z,9.10
2022-09-21T07:17:52.668Z,9.30
2022-09-21T07:20:29.241Z,9.70
2022-09-21T07:23:01.339Z,9.50
2022-09-21T07:25:29.793Z,10.10
2022-09-21T07:28:01.312Z,9.90
2022-09-21T07:30:30.440Z,9.70
2022-09-21T07:33:00.439Z,9.80
2022-09-21T07:35:32.351Z,9.80
2022-09-21T07:38:05.011Z,9.10
2022-09-21T07:40:34.669Z,9.70
2022-09-21T07:43:04.649Z,9.70
2022-09-21T07:45:42.934Z,9.80
2022-09-21T07:51:20.920Z,9.80
2022-09-21T07:53:54.059Z,9.40
2022-09-21T07:56:21.956Z,10.00
2022-09-21T07:59:08.040Z,10.10
2022-09-21T08:01:45.354Z,10.00
2022-09-21T08:04:14.779Z,10.00
2022-09-21T08:06:46.072Z,10.90
2022-09-21T08:09:13.749Z,10.20
2022-09-21T08:11:46.605Z,10.50
2022-09-21T08:19:46.539Z,10.30
2022-09-21T08:41:50.088Z,10.70
2022-09-21T08:44:25.037Z,10.80
2022-09-21T08:47:04.755Z,11.50
2022-09-21T08:49:35.697Z,10.50
2022-09-21T08:55:06.104Z,10.30
2022-09-21T08:57:34.913Z,10.50
2022-09-21T09:00:29.475Z,10.50
2022-09-21T09:03:34.288Z,11.10
2022-09-21T09:06:17.005Z,10.70
2022-09-21T09:09:27.728Z,11.00
2022-09-21T09:12:01.040Z,11.40
2022-09-21T09:14:41.160Z,11.40
2022-09-21T09:17:23.739Z,11.50
2022-09-21T09:20:10.742Z,11.80
2022-09-21T09:22:46.972Z,11.40
2022-09-21T09:25:21.422Z,11.40
2022-09-21T09:27:58.435Z,11.60
2022-09-21T09:30:30.819Z,11.60
2022-09-21T09:33:09.138Z,11.60
2022-09-21T09:35:59.533Z,11.60
2022-09-21T09:41:44.119Z,11.80
2022-09-21T09:44:33.053Z,9.10
2022-09-21T09:58:30.796Z,12.40
2022-09-21T10:06:56.445Z,12.60
2022-09-21T10:09:56.604Z,12.50
2022-09-21T10:12:28.460Z,12.80
2022-09-21T10:15:03.485Z,11.80
2022-09-21T10:23:07.597Z,12.10
2022-09-21T10:25:40.188Z,12.10
2022-09-21T10:28:12.538Z,12.20
2022-09-21T10:30:41.465Z,12.80
2022-09-21T10:33:22.725Z,13.50
2022-09-21T10:35:54.771Z,14.30
2022-09-21T10:38:42.555Z,14.20
2022-09-21T10:41:15.541Z,14.40
2022-09-21T10:43:45.832Z,14.10
2022-09-21T10:49:58.323Z,14.70
2022-09-21T10:58:25.082Z,15.30
2022-09-21T11:00:56.160Z,16.60
2022-09-21T11:06:35.722Z,14.10
2022-09-21T11:09:10.071Z,13.60
2022-09-21T11:12:02.107Z,13.30
2022-09-21T11:14:43.089Z,13.40
2022-09-21T11:17:38.724Z,13.60
2022-09-21T11:20:18.629Z,13.90
2022-09-21T11:22:57.755Z,13.90
2022-09-21T11:25:25.525Z,14.10
2022-09-21T11:28:13.549Z,13.60
2022-09-21T11:31:08.766Z,13.60
2022-09-21T11:34:04.999Z,13.40
2022-09-21T11:36:50.539Z,13.40
2022-09-21T11:39:46.596Z,13.30
2022-09-21T11:42:36.392Z,13.20
2022-09-21T11:45:22.606Z,13.10
2022-09-21T11:48:08.190Z,13.10
2022-09-21T11:53:41.626Z,13.00
2022-09-21T11:56:18.319Z,13.10
2022-09-21T11:58:58.194Z,13.10
2022-09-21T12:01:34.892Z,13.10
2022-09-21T12:04:52.338Z,13.10
2022-09-21T12:10:39.931Z,13.20
2022-09-21T12:13:27.520Z,13.20
2022-09-21T12:16:21.494Z,13.20
2022-09-21T12:19:01.872Z,13.20
2022-09-21T12:21:37.952Z,13.30
2022-09-21T12:24:16.019Z,13.40
2022-09-21T12:26:49.371Z,13.50
2022-09-21T12:29:28.683Z,13.60
2022-09-21T12:32:24.208Z,13.70
2022-09-21T12:35:04.159Z,13.80
2022-09-21T12:37:46.274Z,13.60
2022-09-21T12:40:25.447Z,13.60
2022-09-21T12:43:05.660Z,13.60
2022-09-21T12:45:39.777Z,13.80
2022-09-21T12:48:17.421Z,13.80
2022-09-21T12:50:52.080Z,13.80
2022-09-21T12:53:23.406Z,13.80
2022-09-21T12:56:10.252Z,13.80
2022-09-21T12:59:05.678Z,13.60
2022-09-21T13:01:57.103Z,13.60
2022-09-21T13:04:38.548Z,13.60
2022-09-21T13:07:40.380Z,13.60
2022-09-21T13:10:17.155Z,13.40
2022-09-21T13:12:47.989Z,13.30
2022-09-21T13:15:19.209Z,13.20
2022-09-21T13:17:46.837Z,13.30
2022-09-21T13:20:20.851Z,13.30
2022-09-21T13:22:49.314Z,13.20
2022-09-21T13:25:28.467Z,13.10
2022-09-21T13:28:02.461Z,13.10
2022-09-21T13:30:45.971Z,13.10
2022-09-21T13:33:19.198Z,13.10
2022-09-21T13:36:07.807Z,13.10
2022-09-21T13:38:41.471Z,13.10
2022-09-21T13:41:17.887Z,13.10
2022-09-21T13:43:58.616Z,13.00
2022-09-21T13:47:01.877Z,13.00
2022-09-21T13:49:35.502Z,13.00
2022-09-21T13:52:03.678Z,13.20
2022-09-21T13:54:50.611Z,13.10
2022-09-21T13:57:27.372Z,13.00
2022-09-21T14:00:00.602Z,13.10
2022-09-21T14:02:42.296Z,13.00
2022-09-21T14:05:26.144Z,13.00
2022-09-21T14:08:03.276Z,13.10
2022-09-21T14:10:33.968Z,12.20
2022-09-21T14:13:04.124Z,13.10
2022-09-21T14:15:37.470Z,13.10
2022-09-21T14:18:17.174Z,13.00
2022-09-21T14:21:06.843Z,13.10
2022-09-21T14:23:35.659Z,13.10
2022-09-21T14:26:39.512Z,13.10
2022-09-21T14:29:44.632Z,13.10
2022-09-21T14:32:19.386Z,13.10
2022-09-21T14:34:50.462Z,13.10
2022-09-21T14:37:35.266Z,13.10
2022-09-21T14:40:21.677Z,13.10
2022-09-21T14:42:57.091Z,13.10
2022-09-21T14:46:20.190Z,13.10
2022-09-21T14:49:18.932Z,13.00
2022-09-21T14:52:26.164Z,13.00
2022-09-21T14:55:17.091Z,13.00
2022-09-21T14:58:06.438Z,13.00
2022-09-21T15:00:43.391Z,13.00
2022-09-21T15:03:30.915Z,12.90
2022-09-21T15:06:24.018Z,12.80
2022-09-21T15:09:44.747Z,12.90
2022-09-21T15:12:28.783Z,12.90
2022-09-21T15:15:22.098Z,12.80
2022-09-21T15:17:59.480Z,12.80
2022-09-21T15:20:30.268Z,12.80
2022-09-21T15:22:59.395Z,12.80
2022-09-21T15:25:31.670Z,12.80
2022-09-21T15:28:00.385Z,12.80
2022-09-21T15:30:29.901Z,12.70
2022-09-21T15:33:02.366Z,12.70
2022-09-21T15:35:33.864Z,12.60
2022-09-21T15:38:01.816Z,12.60
2022-09-21T15:40:36.706Z,12.50
2022-09-21T15:43:20.078Z,12.50
2022-09-21T15:45:59.548Z,12.50
2022-09-21T15:48:34.432Z,12.50
2022-09-21T15:51:28.279Z,12.50
2022-09-21T15:54:32.484Z,12.50
2022-09-21T15:57:07.919Z,12.50
2022-09-21T15:59:36.043Z,12.60
2022-09-21T16:02:15.719Z,12.60
2022-09-21T16:04:49.946Z,12.50
2022-09-21T16:07:35.254Z,12.50
2022-09-21T16:10:23.795Z,12.40
2022-09-21T16:12:51.256Z,12.30
2022-09-21T16:15:23.295Z,12.30
2022-09-21T16:18:02.239Z,12.30
2022-09-21T16:20:48.739Z,12.30
2022-09-21T16:23:42.183Z,12.30
2022-09-21T16:26:43.188Z,12.20
2022-09-21T16:29:24.238Z,12.20
2022-09-21T16:31:53.932Z,12.10
2022-09-21T16:34:40.348Z,12.40
2022-09-21T16:37:26.159Z,11.90
2022-09-21T16:40:00.907Z,11.90
2022-09-21T16:42:33.098Z,12.00
2022-09-21T16:45:01.510Z,11.80
2022-09-21T16:47:29.629Z,11.70
2022-09-21T16:50:01.653Z,11.80
2022-09-21T16:52:30.636Z,11.80
2022-09-21T16:54:58.888Z,11.70
2022-09-21T16:57:27.214Z,11.60
2022-09-21T16:59:55.180Z,11.80
2022-09-21T17:02:23.831Z,11.70
2022-09-21T17:04:51.448Z,11.80
2022-09-21T17:07:20.193Z,12.30
2022-09-21T17:09:48.431Z,11.60
2022-09-21T17:12:18.351Z,11.50
2022-09-21T17:14:47.327Z,11.40
2022-09-21T17:17:22.578Z,11.40
2022-09-21T17:19:52.134Z,11.40
2022-09-21T17:22:20.123Z,11.50
2022-09-21T17:24:51.742Z,11.40
2022-09-21T17:27:23.130Z,11.40
2022-09-21T17:29:51.180Z,11.40
2022-09-21T17:32:21.296Z,11.40
2022-09-21T17:35:12.848Z,11.40
2022-09-21T17:37:40.365Z,11.30
2022-09-21T17:40:11.168Z,11.20
2022-09-21T17:42:41.725Z,11.30
2022-09-21T17:45:18.328Z,11.30
2022-09-21T17:47:46.361Z,11.30
2022-09-21T17:50:17.652Z,11.20
2022-09-21T17:53:04.279Z,11.40
2022-09-21T17:55:32.282Z,11.20
2022-09-21T17:58:14.548Z,11.20
2022-09-21T18:00:54.741Z,11.10
2022-09-21T18:03:25.607Z,11.40
2022-09-21T18:05:59.822Z,11.10
2022-09-21T18:08:34.159Z,11.00
2022-09-21T18:11:26.212Z,11.00
2022-09-21T18:14:24.665Z,11.00
2022-09-21T18:17:07.661Z,11.10
2022-09-21T18:19:38.795Z,11.20
2022-09-21T18:22:33.959Z,11.20
2022-09-21T18:25:03.463Z,11.20
2022-09-21T18:27:31.366Z,11.10
2022-09-21T18:29:59.112Z,11.00
2022-09-21T18:32:49.741Z,10.80
2022-09-21T18:35:39.000Z,10.70
2022-09-21T18:38:13.505Z,10.80
2022-09-21T18:41:13.722Z,10.90
2022-09-21T18:44:01.121Z,11.00
2022-09-21T18:46:39.871Z,11.00
2022-09-21T18:49:47.933Z,11.00
2022-09-21T18:52:40.093Z,11.10
2022-09-21T18:55:27.425Z,11.10
2022-09-21T18:57:57.358Z,10.90
2022-09-21T19:00:31.667Z,10.80
2022-09-21T19:03:18.588Z,10.70
2022-09-21T19:06:11.543Z,10.70
2022-09-21T19:09:14.517Z,10.70
2022-09-21T19:11:57.624Z,10.70
2022-09-21T19:14:46.841Z,10.60
2022-09-21T19:17:42.434Z,10.50
2022-09-21T19:20:12.538Z,10.50
2022-09-21T19:23:07.177Z,10.50
2022-09-21T19:25:49.970Z,10.50
2022-09-21T19:29:15.242Z,10.50
2022-09-21T19:31:42.972Z,10.50
2022-09-21T19:34:15.858Z,10.50
2022-09-21T19:36:44.712Z,10.50
2022-09-21T19:39:13.372Z,10.40
2022-09-21T19:41:50.516Z,10.40
2022-09-21T19:44:28.009Z,10.30
2022-09-21T19:47:25.739Z,10.40
2022-09-21T19:49:54.788Z,10.50
2022-09-21T19:52:36.527Z,11.10
2022-09-21T19:55:23.459Z,10.60
2022-09-21T19:58:14.297Z,10.60
2022-09-21T20:00:44.260Z,10.60
2022-09-21T20:03:22.451Z,10.50
2022-09-21T20:06:06.809Z,10.40
2022-09-21T20:09:06.642Z,10.40
2022-09-21T20:11:46.372Z,10.40
2022-09-21T20:14:33.237Z,10.40
2022-09-21T20:17:05.336Z,10.90
2022-09-21T20:19:33.110Z,10.50
2022-09-21T20:22:09.232Z,10.50
2022-09-21T20:24:53.907Z,10.20
2022-09-21T20:27:30.025Z,9.90
2022-09-21T20:29:57.922Z,9.60
2022-09-21T20:32:25.818Z,9.40
2022-09-21T20:34:53.306Z,9.40
2022-09-21T20:37:22.229Z,9.40
2022-09-21T20:39:49.876Z,9.70
2022-09-21T20:42:23.628Z,9.60
2022-09-21T20:44:51.808Z,9.70
2022-09-21T20:47:20.627Z,9.70
2022-09-21T20:49:49.220Z,9.60
2022-09-21T20:52:17.845Z,9.30
2022-09-21T20:54:49.333Z,9.30
2022-09-21T20:57:18.373Z,9.40
2022-09-21T20:59:46.108Z,9.40
2022-09-21T21:02:15.444Z,9.40
2022-09-21T21:04:45.125Z,9.30
2022-09-21T21:07:12.575Z,9.00
2022-09-21T21:09:39.909Z,8.90
2022-09-21T21:12:07.535Z,8.90
2022-09-21T21:14:35.136Z,8.90
2022-09-21T21:17:03.011Z,9.00
2022-09-21T21:19:31.506Z,9.10
2022-09-21T21:21:59.049Z,9.10
2022-09-21T21:24:41.934Z,9.10
2022-09-21T21:27:20.267Z,9.10
2022-09-21T21:29:51.247Z,8.90
2022-09-21T21:32:20.765Z,8.80
2022-09-21T21:34:50.191Z,8.80
2022-09-21T21:37:19.913Z,8.90
2022-09-21T21:39:47.944Z,8.80
2022-09-21T21:42:17.236Z,8.70
2022-09-21T21:44:46.820Z,8.60
2022-09-21T21:47:38.337Z,8.60
2022-09-21T21:50:02.676Z,8.80
2022-09-21T21:52:30.524Z,8.40
2022-09-21T21:54:57.866Z,8.30
2022-09-21T21:57:25.360Z,8.40
2022-09-21T21:59:52.887Z,8.40
2022-09-21T22:02:20.577Z,8.20
2022-09-21T22:04:48.229Z,8.00
2022-09-21T22:07:15.844Z,7.70
2022-09-21T22:09:43.454Z,8.00
2022-09-21T22:12:11.357Z,8.10
2022-09-21T22:14:39.035Z,8.10
2022-09-21T22:17:06.604Z,8.00
2022-09-21T22:19:34.369Z,8.10
2022-09-21T22:22:01.764Z,8.10
2022-09-21T22:24:29.809Z,8.00
2022-09-21T22:26:57.512Z,7.80
2022-09-21T22:29:25.361Z,7.70
2022-09-21T22:31:54.321Z,7.80
2022-09-21T22:34:21.887Z,7.90
2022-09-21T22:36:50.527Z,7.70
2022-09-21T22:39:17.992Z,7.50
2022-09-21T22:41:45.546Z,7.30
2022-09-21T22:44:13.095Z,7.30
2022-09-21T22:46:40.861Z,7.30
2022-09-21T22:49:09.225Z,7.30
2022-09-21T22:51:38.123Z,7.20
2022-09-21T22:54:06.169Z,7.00
2022-09-21T22:56:34.000Z,6.80
2022-09-21T22:59:03.991Z,6.70
2022-09-21T23:01:36.821Z,6.60
2022-09-21T23:04:10.422Z,6.50
2022-09-21T23:06:44.064Z,6.50
2022-09-21T23:09:18.560Z,6.50
2022-09-21T23:11:48.545Z,6.40
2022-09-21T23:14:17.306Z,6.30
2022-09-21T23:16:45.681Z,6.30
2022-09-21T23:19:16.581Z,6.30
2022-09-21T23:21:46.930Z,6.30
2022-09-21T23:24:14.715Z,6.30
2022-09-21T23:26:42.781Z,6.40
2022-09-21T23:29:13.124Z,6.40
2022-09-21T23:31:44.760Z,6.50
2022-09-21T23:34:13.679Z,6.70
2022-09-21T23:36:42.075Z,6.90
2022-09-21T23:39:12.170Z,7.10
2022-09-21T23:41:39.645Z,7.30
2022-09-21T23:44:07.515Z,7.40
2022-09-21T23:46:37.196Z,7.50
2022-09-21T23:49:05.371Z,7.50
2022-09-21T23:51:33.252Z,7.50
2022-09-21T23:54:01.503Z,7.70
2022-09-21T23:56:29.623Z,7.80
2022-09-21T23:58:57.238Z,7.70
